createdAt,value
2018-10-17T11:01:10.495Z,5.87
2018-10-17T11:03:39.465Z,5.65
2018-10-17T11:06:08.380Z,5.80
2018-10-17T11:08:37.371Z,5.55
2018-10-17T11:11:06.655Z,6.75
2018-10-17T11:13:35.856Z,6.30
2018-10-17T11:16:04.849Z,6.65
2018-10-17T11:18:33.733Z,6.67
2018-10-17T11:21:02.954Z,5.33
2018-10-17T11:23:32.132Z,4.87
2018-10-17T11:26:01.077Z,5.10
2018-10-17T11:28:29.989Z,5.15
2018-10-17T11:30:59.412Z,5.20
2018-10-17T11:33:28.557Z,5.10
2018-10-17T11:35:57.633Z,5.35
2018-10-17T11:38:26.634Z,5.25
2018-10-17T11:40:55.568Z,5.10
2018-10-17T11:43:24.552Z,6.15
2018-10-17T11:45:53.596Z,5.67
2018-10-17T11:48:22.463Z,6.67
2018-10-17T11:50:51.308Z,5.05
2018-10-17T11:53:20.202Z,5.53
2018-10-17T11:55:49.127Z,5.28
2018-10-17T11:58:18.076Z,6.12
2018-10-17T12:00:47.270Z,6.97
2018-10-17T12:03:16.162Z,4.80
2018-10-17T12:05:45.256Z,6.35
2018-10-17T12:08:14.172Z,5.65
2018-10-17T12:10:43.296Z,7.67
2018-10-17T12:13:12.440Z,6.53
2018-10-17T12:15:43.263Z,6.33
2018-10-17T12:18:12.780Z,7.17
2018-10-17T12:20:41.897Z,5.90
2018-10-17T12:23:11.203Z,6.92
2018-10-17T12:25:40.180Z,6.28
2018-10-17T12:28:09.353Z,5.53
2018-10-17T12:30:41.598Z,6.22
2018-10-17T12:33:10.934Z,7.65
2018-10-17T12:35:41.035Z,6.67
2018-10-17T12:38:10.546Z,6.80
2018-10-17T12:40:39.745Z,7.75
2018-10-17T12:43:08.739Z,6.97
2018-10-17T12:45:37.952Z,7.17
2018-10-17T12:48:07.097Z,7.22
2018-10-17T12:50:37.132Z,6.67
2018-10-17T12:53:07.263Z,7.23
2018-10-17T12:55:35.982Z,7.70
2018-10-17T12:58:05.136Z,6.93
2018-10-17T13:00:35.465Z,6.75
2018-10-17T13:03:06.927Z,6.20
2018-10-17T13:05:37.089Z,6.47
2018-10-17T13:08:06.388Z,7.10
2018-10-17T13:10:36.456Z,7.17
2018-10-17T13:13:05.723Z,7.03
2018-10-17T13:15:35.056Z,7.33
2018-10-17T13:18:04.132Z,6.93
2018-10-17T13:20:33.059Z,6.70
2018-10-17T13:23:02.366Z,6.97
2018-10-17T13:25:31.771Z,6.67
2018-10-17T13:28:00.765Z,7.07
2018-10-17T13:30:29.772Z,8.33
2018-10-17T13:32:58.829Z,7.73
2018-10-17T13:35:27.871Z,7.40
2018-10-17T13:37:56.878Z,6.43
2018-10-17T13:40:26.113Z,6.63
2018-10-17T13:42:55.213Z,6.20
2018-10-17T13:45:24.194Z,7.27
2018-10-17T13:47:53.290Z,7.43
2018-10-17T13:50:22.540Z,7.30
2018-10-17T13:52:51.503Z,7.60
2018-10-17T13:55:20.639Z,7.43
2018-10-17T13:57:49.769Z,6.97
2018-10-17T14:00:18.797Z,7.43
2018-10-17T14:09:33.045Z,5.80
2018-10-17T14:12:02.067Z,6.43
2018-10-17T14:14:31.028Z,7.40
2018-10-17T14:17:00.525Z,7.60
2018-10-17T14:19:29.519Z,7.17
2018-10-17T14:21:58.540Z,8.23
2018-10-17T14:24:27.806Z,8.77
2018-10-17T14:26:56.871Z,8.30
2018-10-17T14:29:26.883Z,9.43
2018-10-17T14:31:56.177Z,8.43
2018-10-17T14:34:25.180Z,11.03
2018-10-17T14:36:54.134Z,11.17
2018-10-17T14:39:23.466Z,11.70
2018-10-17T14:41:52.409Z,12.83
2018-10-17T14:44:21.289Z,14.17
2018-10-17T14:46:50.666Z,15.00
2018-10-17T14:49:19.583Z,14.97
2018-10-17T14:51:48.532Z,13.13
2018-10-17T14:54:17.965Z,12.57
2018-10-17T14:56:46.873Z,11.63
2018-10-17T14:59:15.894Z,9.50
2018-10-17T15:01:45.032Z,9.53
2018-10-17T15:04:14.200Z,8.97
2018-10-17T15:06:43.445Z,9.40
2018-10-17T15:09:12.690Z,9.73
2018-10-17T15:11:41.658Z,10.67
2018-10-17T15:14:10.604Z,11.23
2018-10-17T15:16:41.991Z,9.83
2018-10-17T15:19:11.051Z,8.47
2018-10-17T15:21:40.116Z,6.20
2018-10-17T15:24:09.554Z,7.00
2018-10-17T15:26:38.560Z,6.03
2018-10-17T15:29:07.568Z,6.40
2018-10-17T15:31:36.730Z,6.27
2018-10-17T15:34:05.914Z,6.50
2018-10-17T15:36:34.911Z,6.00
2018-10-17T15:39:08.241Z,7.03
2018-10-17T15:41:37.382Z,5.47
2018-10-17T15:44:07.399Z,6.03
2018-10-17T15:46:36.386Z,4.67
2018-10-17T15:49:07.811Z,5.20
2018-10-17T15:51:36.897Z,6.70
2018-10-17T15:54:05.945Z,6.13
2018-10-17T15:56:35.104Z,5.90
2018-10-17T15:59:04.047Z,6.13
2018-10-17T16:01:33.196Z,5.00
2018-10-17T16:04:02.371Z,5.50
2018-10-17T16:06:31.395Z,5.23
2018-10-17T16:09:00.519Z,5.27
2018-10-17T16:11:29.829Z,5.43
2018-10-17T16:13:58.986Z,5.10
2018-10-17T16:16:27.987Z,5.40
2018-10-17T16:18:57.102Z,6.63
2018-10-17T16:22:55.370Z,7.47
2018-10-17T16:25:24.945Z,5.90
2018-10-17T16:27:54.126Z,6.20
2018-10-17T16:30:24.792Z,5.43
2018-10-17T16:32:54.158Z,5.57
2018-10-17T16:35:23.069Z,5.60
2018-10-17T16:37:52.478Z,6.33
2018-10-17T16:40:21.707Z,7.00
2018-10-17T16:42:50.830Z,6.17
2018-10-17T16:45:27.878Z,7.17
2018-10-17T16:47:58.036Z,7.40
2018-10-17T16:50:27.633Z,7.47
2018-10-17T16:52:56.973Z,6.77
2018-10-17T16:55:26.572Z,7.07
2018-10-17T16:57:56.383Z,6.40
2018-10-17T17:00:25.768Z,7.07
2018-10-17T17:02:55.080Z,6.47
2018-10-17T17:05:24.116Z,5.80
2018-10-17T17:07:53.173Z,6.60
2018-10-17T17:10:22.281Z,7.87
2018-10-17T17:12:51.400Z,7.87
2018-10-17T17:15:20.411Z,8.67
2018-10-17T17:17:49.438Z,8.57
2018-10-17T17:20:18.804Z,10.73
2018-10-17T17:22:48.049Z,10.23
2018-10-17T17:25:16.878Z,10.90
2018-10-17T17:27:46.095Z,10.63
2018-10-17T17:30:17.158Z,9.13
2018-10-17T17:32:47.034Z,10.07
2018-10-17T17:35:16.077Z,9.63
2018-10-17T17:37:45.039Z,10.80
2018-10-17T17:40:15.019Z,10.10
2018-10-17T17:42:44.024Z,11.23
2018-10-17T17:45:13.012Z,10.97
2018-10-17T17:47:42.610Z,12.00
2018-10-17T17:50:11.969Z,13.30
2018-10-17T17:52:41.056Z,13.20
2018-10-17T17:55:10.600Z,15.93
2018-10-17T17:57:39.795Z,17.73
2018-10-17T18:00:09.066Z,20.07
2018-10-17T18:02:38.109Z,23.10
2018-10-17T18:05:07.991Z,23.23
2018-10-17T18:07:37.172Z,21.73
2018-10-17T18:10:06.956Z,25.83
2018-10-17T18:12:36.163Z,20.17
2018-10-17T18:15:05.723Z,19.20
2018-10-17T18:17:35.192Z,20.03
2018-10-17T18:20:04.158Z,17.50
2018-10-17T18:22:33.159Z,16.00
2018-10-17T18:25:02.288Z,16.63
2018-10-17T18:27:31.377Z,15.30
2018-10-17T18:30:01.370Z,17.73
2018-10-17T18:32:30.509Z,16.50
2018-10-17T18:34:59.622Z,16.30
2018-10-17T18:37:28.632Z,15.63
2018-10-17T18:39:58.156Z,15.00
2018-10-17T18:42:27.157Z,15.60
2018-10-17T18:44:56.097Z,16.03
2018-10-17T18:47:25.501Z,16.07
2018-10-17T18:51:24.033Z,16.07
2018-10-17T18:53:53.253Z,16.00
2018-10-17T18:56:22.151Z,16.50
2018-10-17T18:58:51.347Z,16.87
2018-10-17T19:01:20.328Z,15.17
2018-10-17T19:03:49.439Z,17.00
2018-10-17T19:06:18.597Z,17.37
2018-10-17T19:08:47.970Z,17.77
2018-10-17T19:11:16.958Z,17.53
2018-10-17T19:13:46.041Z,17.57
2018-10-17T19:16:15.517Z,16.43
2018-10-17T19:18:44.488Z,17.60
2018-10-17T19:21:13.674Z,16.87
2018-10-17T19:23:43.401Z,17.80
2018-10-17T19:26:12.502Z,16.47
2018-10-17T19:28:41.596Z,16.50
2018-10-17T19:31:10.952Z,17.37
2018-10-17T19:33:40.046Z,16.60
2018-10-17T19:36:09.071Z,17.70
2018-10-17T19:38:38.507Z,17.30
2018-10-17T19:41:07.519Z,16.97
2018-10-17T19:43:36.813Z,17.80
2018-10-17T19:46:06.310Z,17.43
2018-10-17T19:48:35.621Z,17.13
2018-10-17T19:51:04.952Z,16.00
2018-10-17T19:53:34.256Z,17.00
2018-10-17T19:56:03.544Z,17.60
2018-10-17T19:58:32.648Z,15.67
2018-10-17T20:01:01.626Z,17.07
2018-10-17T20:03:30.905Z,16.80
2018-10-17T20:05:59.815Z,17.73
2018-10-17T20:08:28.911Z,16.30
2018-10-17T20:10:58.098Z,17.87
2018-10-17T20:13:27.213Z,36.20
2018-10-17T20:15:56.200Z,17.77
2018-10-17T20:18:25.505Z,18.60
2018-10-17T20:20:54.626Z,18.53
2018-10-17T20:23:23.880Z,18.53
2018-10-17T20:25:53.038Z,18.17
2018-10-17T20:28:22.032Z,22.43
2018-10-17T20:30:51.014Z,22.87
2018-10-17T20:33:20.079Z,24.03
2018-10-17T20:35:49.344Z,25.67
2018-10-17T20:38:18.776Z,26.53
2018-10-17T20:40:47.949Z,25.60
2018-10-17T20:43:16.988Z,19.40
2018-10-17T20:45:46.483Z,21.20
2018-10-17T20:48:15.433Z,19.27
2018-10-17T20:50:44.539Z,19.27
2018-10-17T20:53:13.866Z,17.20
2018-10-17T20:55:42.857Z,16.43
2018-10-17T20:58:11.859Z,16.97
2018-10-17T21:00:41.047Z,16.93
2018-10-17T21:03:09.936Z,17.07
2018-10-17T21:05:38.881Z,14.50
2018-10-17T21:08:08.083Z,16.30
2018-10-17T21:10:37.012Z,17.03
2018-10-17T21:13:05.988Z,16.43
2018-10-17T21:15:35.642Z,17.20
2018-10-17T21:18:04.950Z,16.33
2018-10-17T21:20:34.153Z,16.03
2018-10-17T21:23:03.165Z,18.03
2018-10-17T21:25:32.232Z,26.70
2018-10-17T21:28:01.271Z,31.30
2018-10-17T21:30:30.561Z,35.40
2018-10-17T21:32:59.629Z,37.90
2018-10-17T21:35:28.684Z,40.77
2018-10-17T21:37:58.057Z,43.13
2018-10-17T21:40:26.865Z,48.83
2018-10-17T21:42:55.849Z,47.60
2018-10-17T21:45:24.661Z,50.50
2018-10-17T21:47:53.634Z,49.97
2018-10-17T21:50:22.728Z,51.17
2018-10-17T21:52:52.158Z,49.57
2018-10-17T21:55:21.207Z,49.27
2018-10-17T21:57:50.339Z,48.27
2018-10-17T22:00:20.085Z,43.63
2018-10-17T22:02:48.997Z,39.87
2018-10-17T22:05:17.944Z,38.10
2018-10-17T22:07:47.013Z,37.50
2018-10-17T22:10:15.996Z,37.53
2018-10-17T22:12:45.035Z,37.80
2018-10-17T22:15:14.242Z,37.97
2018-10-17T22:17:43.220Z,39.67
2018-10-17T22:20:12.292Z,31.63
2018-10-17T22:22:41.429Z,26.50
2018-10-17T22:25:10.562Z,25.37
2018-10-17T22:27:39.546Z,24.67
2018-10-17T22:30:09.153Z,22.83
2018-10-17T22:32:38.096Z,23.47
2018-10-17T22:35:07.069Z,19.80
2018-10-17T22:37:36.484Z,20.03
2018-10-17T22:40:05.540Z,19.33
2018-10-17T22:42:34.524Z,19.97
2018-10-17T22:45:03.610Z,18.17
2018-10-17T22:47:32.692Z,18.97
2018-10-17T22:50:01.845Z,17.40
2018-10-17T22:52:30.970Z,15.60
2018-10-17T22:54:59.988Z,15.07
2018-10-17T22:57:29.026Z,15.10
2018-10-17T22:59:58.063Z,14.27
2018-10-17T23:02:27.098Z,15.77
2018-10-17T23:04:56.280Z,15.17
2018-10-17T23:07:25.733Z,14.93
2018-10-17T23:09:54.727Z,13.50
2018-10-17T23:12:23.904Z,14.13
2018-10-17T23:14:53.129Z,14.30
2018-10-17T23:17:22.261Z,14.07
2018-10-17T23:19:51.323Z,14.07
2018-10-17T23:22:20.490Z,13.20
2018-10-17T23:24:49.456Z,13.17
2018-10-17T23:27:18.475Z,14.60
2018-10-17T23:29:47.428Z,14.83
2018-10-17T23:32:16.614Z,15.87
2018-10-17T23:34:45.772Z,15.60
2018-10-17T23:37:14.884Z,14.80
2018-10-17T23:39:43.787Z,14.70
2018-10-17T23:42:12.758Z,16.67
2018-10-17T23:44:42.136Z,18.20
2018-10-17T23:47:11.076Z,19.20
2018-10-17T23:49:40.011Z,18.70
2018-10-17T23:52:09.187Z,21.37
2018-10-17T23:54:38.120Z,21.07
2018-10-17T23:57:07.094Z,21.37
2018-10-17T23:59:36.680Z,22.00
